Time;durP1;ratioP1;P1;durP2;ratioP2;P2;SDS_P1;SDS_P2;PMS_P1;PMS_P2;Temp;Humidity;BMP_temperature;BMP_pressure;BME280_temperature;BME280_humidity;BME280_pressure;Samples;Min_cycle;Max_cycle;Signal;HPM_P1;HPM_P2
2021/08/19 00:01:47;;;;;;;1.77;1.67;;;;;;;19.14;85.13;96409.06;5074915;28;20178;-56
2021/08/19 00:04:13;;;;;;;1.70;1.60;;;;;;;19.01;85.61;96401.69;5067747;28;20206;-56
2021/08/19 00:06:38;;;;;;;1.77;1.67;;;;;;;19.16;85.33;96406.91;5054794;28;20410;-56
2021/08/19 00:09:03;;;;;;;1.90;1.80;;;;;;;19.08;85.70;96397.66;5054898;28;20262;-56
2021/08/19 00:11:29;;;;;;;2.00;1.90;;;;;;;18.84;87.29;96391.41;5054774;28;20230;-56
2021/08/19 00:13:54;;;;;;;1.63;1.53;;;;;;;18.87;87.30;96392.75;5054143;28;20221;-56
2021/08/19 00:16:20;;;;;;;1.93;1.83;;;;;;;18.91;87.13;96391.94;5054742;28;20171;-56
2021/08/19 00:18:46;;;;;;;2.63;1.43;;;;;;;18.92;87.39;96392.72;5062666;28;20724;-59
2021/08/19 00:21:11;;;;;;;1.63;1.53;;;;;;;18.98;86.60;96391.59;5074479;28;20609;-59
2021/08/19 00:23:36;;;;;;;2.20;1.60;;;;;;;18.88;86.95;96395.13;5073799;28;20571;-57
2021/08/19 00:26:05;;;;;;;2.33;1.30;;;;;;;18.76;87.23;96396.53;5074622;28;20683;-59
2021/08/19 00:28:31;;;;;;;2.00;1.40;;;;;;;18.90;86.17;96394.84;5074160;28;20672;-56
2021/08/19 00:30:57;;;;;;;1.67;1.57;;;;;;;18.91;86.34;96391.94;5074548;28;20420;-56
2021/08/19 00:33:24;;;;;;;1.60;1.50;;;;;;;18.81;87.03;96397.31;5073004;28;20496;-59
2021/08/19 00:35:50;;;;;;;1.13;1.10;;;;;;;18.79;87.04;96396.00;5060689;28;20531;-56
2021/08/19 00:38:15;;;;;;;1.60;1.50;;;;;;;18.88;86.49;96394.34;5054422;28;20270;-59
2021/08/19 00:40:40;;;;;;;1.23;1.13;;;;;;;18.88;86.49;96392.47;5054053;28;20179;-57
2021/08/19 00:43:06;;;;;;;1.43;1.33;;;;;;;18.81;87.12;96393.84;5053879;28;20301;-59
2021/08/19 00:45:34;;;;;;;1.40;1.30;;;;;;;18.87;86.37;96392.75;5054704;28;20202;-56
2021/08/19 00:48:00;;;;;;;1.80;1.00;;;;;;;18.64;87.18;96396.09;5055148;28;20199;-59
2021/08/19 00:50:26;;;;;;;1.40;1.30;;;;;;;18.67;86.99;96387.56;5074164;28;20826;-56
2021/08/19 00:52:52;;;;;;;1.40;1.30;;;;;;;18.60;87.64;96387.06;5073713;28;20295;-59
2021/08/19 00:55:17;;;;;;;1.37;1.27;;;;;;;18.68;87.01;96383.84;5073769;28;20503;-57
2021/08/19 00:57:47;;;;;;;1.50;1.20;;;;;;;18.55;87.60;96379.91;5068901;28;20519;-59
2021/08/19 01:00:13;;;;;;;1.10;1.00;;;;;;;18.69;87.13;96383.56;5062976;28;20187;-56
2021/08/19 01:02:42;;;;;;;1.47;1.37;;;;;;;18.61;87.29;96385.97;5053902;28;20868;-57
2021/08/19 01:05:09;;;;;;;1.03;1.03;;;;;;;18.63;86.98;96379.31;5054217;28;20480;-56
2021/08/19 01:07:34;;;;;;;1.30;0.97;;;;;;;18.65;86.84;96387.03;5053868;28;20429;-60
2021/08/19 01:10:00;;;;;;;1.20;1.20;;;;;;;18.76;86.73;96385.91;5053793;28;20413;-56
2021/08/19 01:12:26;;;;;;;1.30;1.20;;;;;;;18.90;86.33;96378.88;5053753;28;20290;-59
2021/08/19 01:14:51;;;;;;;1.20;1.10;;;;;;;18.82;86.54;96382.94;5053302;28;20219;-56
2021/08/19 01:17:18;;;;;;;1.73;1.30;;;;;;;18.80;86.60;96381.63;5071380;28;20592;-59
2021/08/19 01:19:48;;;;;;;1.40;1.30;;;;;;;18.52;87.69;96383.09;5071336;28;20599;-56
2021/08/19 01:22:15;;;;;;;1.50;1.40;;;;;;;18.29;89.28;96375.75;5068486;28;20427;-59
2021/08/19 01:24:41;;;;;;;1.40;1.30;;;;;;;18.11;90.13;96374.50;5072755;28;20444;-59
2021/08/19 01:27:12;;;;;;;1.70;1.13;;;;;;;18.30;89.35;96370.16;5073423;28;20437;-59
2021/08/19 01:29:37;;;;;;;2.03;1.60;;;;;;;18.23;89.64;96374.19;5073328;28;20194;-56
2021/08/19 01:32:09;;;;;;;1.50;1.40;;;;;;;18.33;89.26;96382.91;5073265;28;20492;-59
2021/08/19 01:34:35;;;;;;;1.57;1.47;;;;;;;18.10;90.82;96375.56;5071375;28;20202;-59
2021/08/19 01:37:00;;;;;;;1.10;1.10;;;;;;;18.25;90.22;96372.03;5061065;28;20421;-59
2021/08/19 01:39:26;;;;;;;2.63;1.40;;;;;;;18.27;90.32;96383.22;5053150;28;20418;-59
2021/08/19 01:41:52;;;;;;;1.10;1.03;;;;;;;18.14;90.82;96375.81;5052599;28;20630;-59
2021/08/19 01:44:18;;;;;;;1.87;1.30;;;;;;;18.28;90.12;96377.63;5052942;28;20436;-59
2021/08/19 01:46:44;;;;;;;1.00;1.00;;;;;;;18.09;91.35;96371.31;5053331;28;20180;-59
2021/08/19 01:49:09;;;;;;;1.37;1.27;;;;;;;18.11;91.13;96371.06;5053267;28;20429;-59
2021/08/19 01:51:34;;;;;;;1.20;1.20;;;;;;;18.29;90.39;96373.91;5063731;28;20684;-58
2021/08/19 01:54:01;;;;;;;1.23;1.13;;;;;;;18.32;89.74;96377.84;5072617;28;20182;-59
2021/08/19 01:56:26;;;;;;;1.30;1.20;;;;;;;18.41;89.36;96376.25;5073334;28;20174;-56
2021/08/19 01:58:55;;;;;;;1.57;1.47;;;;;;;18.42;89.37;96367.97;5073028;28;20416;-56
2021/08/19 02:01:22;;;;;;;1.33;1.00;;;;;;;18.53;88.85;96366.09;5073286;28;20170;-59
2021/08/19 02:03:48;;;;;;;1.60;1.30;;;;;;;18.50;88.62;96365.84;5072695;28;20547;-59
2021/08/19 02:06:14;;;;;;;1.40;1.30;;;;;;;18.59;88.11;96364.19;5072219;28;20797;-56
2021/08/19 02:08:40;;;;;;;1.47;1.37;;;;;;;18.54;88.21;96375.66;5073372;28;20408;-59
2021/08/19 02:11:05;;;;;;;1.70;1.30;;;;;;;18.59;88.44;96366.84;5073383;28;20174;-56
2021/08/19 02:13:31;;;;;;;3.17;1.63;;;;;;;18.54;88.43;96369.53;5072715;28;20194;-59
2021/08/19 02:15:57;;;;;;;1.60;1.50;;;;;;;18.27;89.91;96377.88;5072955;28;20195;-59
2021/08/19 02:18:22;;;;;;;1.50;1.40;;;;;;;18.48;89.11;96369.56;5073030;28;20181;-56
2021/08/19 02:20:48;;;;;;;1.93;1.40;;;;;;;18.47;89.07;96377.81;5064015;28;20512;-59
2021/08/19 02:23:13;;;;;;;1.63;1.53;;;;;;;18.31;90.29;96368.31;5052490;28;20610;-59
2021/08/19 02:25:38;;;;;;;2.37;1.57;;;;;;;18.51;88.95;96368.22;5052693;28;20691;-56
2021/08/19 02:28:04;;;;;;;1.60;1.50;;;;;;;18.46;89.38;96368.25;5052966;28;20199;-59
2021/08/19 02:30:29;;;;;;;2.07;1.60;;;;;;;18.20;90.70;96372.88;5052796;28;20609;-56
2021/08/19 02:32:57;;;;;;;1.60;1.50;;;;;;;18.43;89.39;96371.44;5052324;28;20226;-59
2021/08/19 02:35:32;;;;;;;1.93;1.60;;;;;;;18.27;90.49;96368.06;5058358;28;20282;-59
2021/08/19 02:38:05;;;;;;;1.97;1.50;;;;;;;18.39;89.54;96365.84;5052699;28;20459;-59
2021/08/19 02:40:31;;;;;;;1.60;1.50;;;;;;;18.48;88.81;96358.91;5052637;28;20881;-56
2021/08/19 02:42:56;;;;;;;1.67;1.57;;;;;;;18.38;89.47;96361.63;5052392;28;20409;-56
2021/08/19 02:45:22;;;;;;;2.30;1.83;;;;;;;18.62;88.14;96359.13;5052537;28;20572;-55
2021/08/19 02:47:47;;;;;;;1.70;1.60;;;;;;;18.55;88.42;96358.63;5052707;28;20180;-57
2021/08/19 02:50:14;;;;;;;3.57;2.20;;;;;;;18.73;87.87;96354.50;5055893;28;20179;-56
2021/08/19 02:52:40;;;;;;;1.60;1.50;;;;;;;18.54;88.22;96357.03;5074241;28;20191;-57
2021/08/19 02:55:07;;;;;;;2.23;1.57;;;;;;;18.59;87.95;96348.22;5076234;28;20429;-60
2021/08/19 02:57:33;;;;;;;2.30;1.60;;;;;;;18.56;88.51;96354.06;5076028;28;20408;-56
2021/08/19 02:59:58;;;;;;;1.70;1.60;;;;;;;18.26;89.73;96352.38;5076339;28;20417;-56
2021/08/19 03:02:24;;;;;;;1.60;1.50;;;;;;;18.48;88.48;96348.28;5072030;28;20207;-57
2021/08/19 03:04:50;;;;;;;2.50;1.37;;;;;;;18.67;88.22;96345.75;5055825;28;20217;-59
2021/08/19 03:07:15;;;;;;;1.87;1.77;;;;;;;18.78;87.82;96347.28;5055885;28;20875;-56
2021/08/19 03:09:41;;;;;;;1.70;1.60;;;;;;;18.50;88.11;96353.31;5056123;28;20202;-59
2021/08/19 03:12:07;;;;;;;2.17;1.53;;;;;;;18.61;87.36;96341.53;5055827;28;20684;-59
2021/08/19 03:14:33;;;;;;;1.60;1.50;;;;;;;18.45;88.31;96346.16;5055495;28;20632;-56
2021/08/19 03:17:00;;;;;;;1.50;1.40;;;;;;;18.58;87.57;96342.09;5056929;28;20183;-59
2021/08/19 03:19:26;;;;;;;1.97;1.80;;;;;;;18.64;87.19;96337.53;5075717;28;20412;-59
2021/08/19 03:21:52;;;;;;;1.93;1.83;;;;;;;18.70;87.30;96341.75;5075909;28;20775;-59
2021/08/19 03:24:17;;;;;;;2.03;1.93;;;;;;;18.69;86.72;96334.84;5075138;28;20452;-56
2021/08/19 03:26:42;;;;;;;2.83;1.83;;;;;;;18.59;87.36;96334.91;5074339;28;20171;-59
2021/08/19 03:29:08;;;;;;;1.83;1.53;;;;;;;18.52;87.37;96337.88;5075759;28;20201;-56
2021/08/19 03:31:33;;;;;;;1.60;1.50;;;;;;;18.75;86.71;96339.84;5075228;28;20175;-56
2021/08/19 03:33:59;;;;;;;3.73;2.03;;;;;;;18.60;87.30;96339.97;5055267;28;20178;-59
2021/08/19 03:36:25;;;;;;;1.47;1.40;;;;;;;18.70;86.75;96336.44;5055450;28;20171;-56
2021/08/19 03:38:51;;;;;;;2.03;1.77;;;;;;;18.70;86.53;96334.56;5055999;28;20615;-56
2021/08/19 03:41:17;;;;;;;1.60;1.50;;;;;;;18.64;86.38;96337.53;5055533;28;20479;-56
2021/08/19 03:43:45;;;;;;;1.97;1.87;;;;;;;18.44;86.59;96341.13;5054994;28;20784;-59
2021/08/19 03:46:10;;;;;;;1.90;1.80;;;;;;;18.46;86.66;96345.09;5055012;28;20250;-56
2021/08/19 03:48:35;;;;;;;1.97;1.80;;;;;;;18.64;86.50;96341.00;5057555;28;20908;-59
2021/08/19 03:51:01;;;;;;;1.83;1.73;;;;;;;18.49;86.57;96343.75;5055137;28;20182;-56
2021/08/19 03:53:26;;;;;;;2.00;1.80;;;;;;;18.51;86.77;96338.94;5054738;28;20570;-59
2021/08/19 03:55:52;;;;;;;1.90;1.80;;;;;;;18.29;87.32;96336.66;5055169;28;20199;-59
2021/08/19 03:58:17;;;;;;;2.27;2.00;;;;;;;18.31;87.33;96333.72;5055056;28;20232;-56
2021/08/19 04:00:44;;;;;;;1.70;1.60;;;;;;;18.44;87.25;96341.91;5055339;28;20176;-58
2021/08/19 04:03:10;;;;;;;2.00;1.90;;;;;;;18.48;87.74;96347.47;5071277;28;20533;-56
2021/08/19 04:05:35;;;;;;;2.10;1.63;;;;;;;18.66;86.58;96338.81;5074714;28;20436;-59
2021/08/19 04:08:00;;;;;;;1.97;1.80;;;;;;;18.50;87.66;96337.34;5074877;28;20193;-56
2021/08/19 04:10:26;;;;;;;2.00;1.80;;;;;;;18.60;86.65;96339.97;5075018;28;20210;-59
2021/08/19 04:12:54;;;;;;;2.53;1.57;;;;;;;18.61;86.82;96341.53;5074337;28;20222;-56
2021/08/19 04:15:19;;;;;;;2.40;2.30;;;;;;;18.70;86.33;96337.22;5073206;28;20561;-57
2021/08/19 04:17:45;;;;;;;1.90;1.80;;;;;;;18.77;85.48;96337.69;5058345;28;20429;-56
2021/08/19 04:20:11;;;;;;;2.10;1.90;;;;;;;18.39;87.27;96346.44;5054673;28;20638;-59
2021/08/19 04:22:36;;;;;;;1.63;1.53;;;;;;;18.55;86.66;96341.84;5054088;28;20175;-59
2021/08/19 04:25:02;;;;;;;2.50;2.10;;;;;;;18.45;87.35;96343.50;5054210;28;20449;-56
2021/08/19 04:27:27;;;;;;;2.10;1.90;;;;;;;18.60;86.77;96334.63;5054488;28;20194;-56
2021/08/19 04:29:53;;;;;;;2.93;1.90;;;;;;;18.35;88.11;96343.50;5054376;28;20267;-56
2021/08/19 04:32:18;;;;;;;2.00;1.90;;;;;;;18.46;87.33;96339.00;5068380;28;20291;-59
2021/08/19 04:34:43;;;;;;;2.00;1.90;;;;;;;18.40;87.79;96342.72;5074061;28;20190;-59
2021/08/19 04:37:09;;;;;;;1.67;1.57;;;;;;;18.41;87.47;96337.13;5074516;28;20629;-56
2021/08/19 04:39:34;;;;;;;2.00;1.47;;;;;;;18.41;88.08;96334.47;5074233;28;20171;-59
2021/08/19 04:42:00;;;;;;;2.13;1.93;;;;;;;18.42;87.62;96338.72;5074428;28;20524;-59
2021/08/19 04:44:25;;;;;;;1.60;1.50;;;;;;;18.30;88.42;96346.22;5073738;28;20278;-57
2021/08/19 04:46:50;;;;;;;1.97;1.83;;;;;;;18.49;87.67;96341.09;5061230;28;20171;-59
2021/08/19 04:49:16;;;;;;;1.60;1.40;;;;;;;18.45;87.52;96343.50;5054342;28;20179;-56
2021/08/19 04:51:41;;;;;;;1.83;1.73;;;;;;;18.21;88.40;96339.88;5054582;28;20195;-59
2021/08/19 04:54:07;;;;;;;1.57;1.47;;;;;;;18.21;88.42;96339.88;5073738;28;20684;-56
2021/08/19 04:56:37;;;;;;;2.30;1.80;;;;;;;18.30;87.96;96345.41;5074145;28;20179;-56
2021/08/19 04:59:04;;;;;;;2.17;2.07;;;;;;;18.04;88.99;96342.09;5073818;28;20420;-59
2021/08/19 05:01:30;;;;;;;1.50;1.40;;;;;;;17.98;89.39;96343.19;5073319;28;20891;-59
2021/08/19 05:03:57;;;;;;;3.87;1.67;;;;;;;17.90;89.81;96335.75;5073535;28;20412;-59
2021/08/19 05:06:23;;;;;;;2.10;1.73;;;;;;;17.80;90.42;96341.13;5073929;28;20265;-56
2021/08/19 05:08:48;;;;;;;1.43;1.33;;;;;;;17.72;91.25;96333.69;5073935;28;20500;-59
2021/08/19 05:11:14;;;;;;;1.87;1.47;;;;;;;17.54;91.59;96338.81;5074026;28;20167;-59
2021/08/19 05:13:39;;;;;;;2.20;1.90;;;;;;;17.38;92.76;96338.00;5073301;28;20683;-57
2021/08/19 05:16:05;;;;;;;2.20;1.57;;;;;;;17.36;92.93;96329.50;5061875;28;20201;-59
2021/08/19 05:18:30;;;;;;;2.10;1.43;;;;;;;17.35;92.84;96328.72;5053771;28;20171;-59
2021/08/19 05:20:55;;;;;;;1.47;1.37;;;;;;;17.27;93.40;96326.59;5054127;28;20191;-59
2021/08/19 05:23:21;;;;;;;3.20;2.03;;;;;;;17.17;93.93;96334.59;5053309;28;20167;-56
2021/08/19 05:25:46;;;;;;;1.37;1.27;;;;;;;17.43;92.91;96338.00;5053569;28;20205;-56
2021/08/19 05:28:11;;;;;;;3.00;1.57;;;;;;;17.24;92.99;96336.97;5053646;28;20696;-59
2021/08/19 05:30:37;;;;;;;2.53;1.77;;;;;;;17.24;93.30;96336.97;5061898;28;20171;-59
2021/08/19 05:33:02;;;;;;;1.87;1.40;;;;;;;17.42;92.64;96339.88;5073039;28;20661;-56
2021/08/19 05:35:27;;;;;;;5.57;1.43;;;;;;;17.54;92.07;96347.56;5072211;28;20194;-56
2021/08/19 05:37:53;;;;;;;1.30;1.20;;;;;;;17.51;92.38;96353.44;5073676;28;20599;-56
2021/08/19 05:40:18;;;;;;;2.00;1.73;;;;;;;17.36;92.86;96348.09;5073592;28;20174;-59
2021/08/19 05:42:44;;;;;;;1.40;1.30;;;;;;;17.54;91.96;96352.09;5073177;28;20174;-59
2021/08/19 05:45:09;;;;;;;2.10;1.80;;;;;;;17.41;92.48;96353.44;5065997;28;20240;-59
2021/08/19 05:47:35;;;;;;;1.67;1.57;;;;;;;17.50;92.44;96351.84;5054074;28;20206;-56
2021/08/19 05:50:00;;;;;;;2.13;1.70;;;;;;;17.66;91.61;96366.69;5053477;28;20171;-59
2021/08/19 05:52:26;;;;;;;1.60;1.50;;;;;;;17.88;90.97;96363.69;5059791;28;20187;-56
2021/08/19 05:54:51;;;;;;;1.70;1.30;;;;;;;17.86;90.83;96369.28;5072931;28;20201;-60
2021/08/19 05:57:17;;;;;;;2.13;1.37;;;;;;;18.11;90.72;96373.72;5073453;28;20574;-56
2021/08/19 05:59:43;;;;;;;1.80;1.70;;;;;;;18.28;90.29;96374.94;5072430;28;20632;-59
2021/08/19 06:02:08;;;;;;;1.37;1.27;;;;;;;18.48;89.39;96373.31;5073418;28;20167;-60
2021/08/19 06:04:35;;;;;;;1.63;1.53;;;;;;;18.53;88.34;96379.41;5072759;28;20425;-56
2021/08/19 06:07:01;;;;;;;1.30;1.20;;;;;;;18.53;88.46;96374.06;5073335;28;20252;-55
2021/08/19 06:09:26;;;;;;;1.50;1.40;;;;;;;18.64;88.06;96374.81;5073202;28;20500;-60
2021/08/19 06:11:51;;;;;;;1.97;1.83;;;;;;;18.78;87.38;96378.44;5073247;28;20190;-59
2021/08/19 06:14:17;;;;;;;1.80;1.70;;;;;;;18.84;86.66;96375.44;5068456;28;20199;-59
2021/08/19 06:16:42;;;;;;;1.60;1.50;;;;;;;18.82;86.98;96368.81;5053042;28;20186;-56
2021/08/19 06:19:07;;;;;;;2.03;1.43;;;;;;;18.98;86.47;96376.44;5053182;28;20174;-59
2021/08/19 06:21:33;;;;;;;3.03;1.37;;;;;;;19.23;85.76;96378.88;5053223;28;20258;-56
2021/08/19 06:23:58;;;;;;;1.60;1.50;;;;;;;19.16;85.74;96375.75;5052500;28;20202;-59
2021/08/19 06:26:24;;;;;;;1.63;1.40;;;;;;;19.09;86.08;96379.81;5053341;28;20176;-60
2021/08/19 06:28:49;;;;;;;2.00;1.70;;;;;;;19.30;85.87;96381.22;5058976;28;20278;-57
2021/08/19 06:31:15;;;;;;;1.50;1.40;;;;;;;19.39;84.91;96383.03;5075582;28;20257;-59
2021/08/19 06:33:40;;;;;;;3.37;1.30;;;;;;;19.38;84.57;96378.78;5076547;28;20228;-57
2021/08/19 06:36:07;;;;;;;2.60;1.30;;;;;;;19.51;84.87;96382.69;5076720;28;20282;-60
2021/08/19 06:38:33;;;;;;;1.70;1.60;;;;;;;19.72;84.27;96385.91;5062851;28;20542;-60
2021/08/19 06:40:58;;;;;;;2.77;1.37;;;;;;;19.74;84.06;96386.44;5068990;28;20469;-56
2021/08/19 06:43:24;;;;;;;1.83;1.70;;;;;;;19.79;84.59;96384.50;5076116;28;20167;-56
2021/08/19 06:45:49;;;;;;;1.70;1.50;;;;;;;19.60;84.40;96396.97;5076662;28;20256;-56
2021/08/19 06:48:15;;;;;;;1.90;1.30;;;;;;;19.75;84.03;96388.03;5076861;28;20417;-57
2021/08/19 06:50:40;;;;;;;2.23;1.63;;;;;;;19.58;81.86;96387.66;5076630;28;20174;-60
2021/08/19 06:53:07;;;;;;;3.30;1.80;;;;;;;19.66;82.38;96392.41;5063947;28;20199;-56
2021/08/19 06:55:32;;;;;;;1.60;1.50;;;;;;;19.46;82.14;96393.38;5066795;28;20715;-60
2021/08/19 06:57:58;;;;;;;4.70;2.00;;;;;;;19.36;82.12;96386.28;5076065;28;20440;-57
2021/08/19 07:00:23;;;;;;;2.30;1.60;;;;;;;19.13;83.29;96389.63;5076415;28;20178;-61
2021/08/19 07:02:49;;;;;;;1.40;1.30;;;;;;;18.80;84.29;96392.28;5075944;28;20625;-62
2021/08/19 07:05:14;;;;;;;1.83;1.53;;;;;;;19.11;83.25;96389.09;5076151;28;20711;-57
2021/08/19 07:07:40;;;;;;;2.07;1.87;;;;;;;19.00;84.17;96392.94;5076160;28;20174;-59
2021/08/19 07:10:07;;;;;;;1.57;1.47;;;;;;;19.06;83.93;96393.69;5075420;28;20431;-62
2021/08/19 07:12:32;;;;;;;3.33;1.60;;;;;;;18.86;84.20;96383.19;5076120;28;20255;-59
2021/08/19 07:14:58;;;;;;;1.90;1.70;;;;;;;18.89;84.50;96391.41;5075499;28;20550;-59
2021/08/19 07:17:23;;;;;;;1.73;1.63;;;;;;;18.70;84.58;96390.47;5074702;28;20174;-62
2021/08/19 07:19:49;;;;;;;1.87;1.70;;;;;;;18.65;85.61;96389.69;5075974;28;20181;-62
2021/08/19 07:22:14;;;;;;;1.40;1.30;;;;;;;19.04;84.94;96383.28;5076005;28;20178;-59
2021/08/19 07:24:39;;;;;;;1.60;1.50;;;;;;;18.96;84.06;96385.75;5067096;28;20207;-62
2021/08/19 07:27:05;;;;;;;2.03;1.50;;;;;;;18.98;83.38;96387.09;5055927;28;20172;-59
2021/08/19 07:29:31;;;;;;;2.10;1.50;;;;;;;19.28;83.17;96391.34;5055699;28;20178;-59
2021/08/19 07:31:56;;;;;;;2.73;1.30;;;;;;;19.34;82.32;96392.94;5055628;28;20225;-59
2021/08/19 07:34:22;;;;;;;3.33;1.30;;;;;;;19.25;82.98;96391.94;5055283;28;20191;-59
2021/08/19 07:36:47;;;;;;;1.70;1.60;;;;;;;18.96;83.53;96393.75;5055676;28;20171;-62
2021/08/19 07:39:12;;;;;;;1.80;1.70;;;;;;;19.22;83.07;96390.59;5056764;28;20186;-62
2021/08/19 07:41:38;;;;;;;3.30;1.40;;;;;;;19.17;82.88;96395.19;5075644;28;20174;-62
2021/08/19 07:44:04;;;;;;;2.30;1.77;;;;;;;19.17;82.60;96389.84;5075034;28;20215;-62
2021/08/19 07:46:30;;;;;;;2.00;1.50;;;;;;;19.20;82.27;96390.09;5075375;28;20586;-62
2021/08/19 07:48:58;;;;;;;1.33;1.23;;;;;;;19.42;82.17;96389.69;5075380;28;20167;-62
2021/08/19 07:51:23;;;;;;;2.37;1.80;;;;;;;19.47;82.30;96389.63;5075525;28;20495;-63
2021/08/19 07:53:50;;;;;;;2.03;1.57;;;;;;;19.55;81.15;96390.91;5069910;28;20539;-58
2021/08/19 07:56:15;;;;;;;2.67;2.20;;;;;;;19.54;82.19;96394.63;5052716;28;20204;-61
2021/08/19 07:58:40;;;;;;;1.27;1.27;;;;;;;19.72;80.62;96388.59;5066780;28;20482;-61
2021/08/19 08:01:06;;;;;;;1.60;1.50;;;;;;;19.70;80.31;96388.88;5071831;28;20178;-60
2021/08/19 08:03:32;;;;;;;2.23;1.30;;;;;;;19.71;81.87;96390.44;5071295;28;20845;-60
2021/08/19 08:05:57;;;;;;;2.10;1.63;;;;;;;19.82;81.36;96396.50;5071008;28;20202;-60
2021/08/19 08:08:23;;;;;;;1.70;1.53;;;;;;;20.13;80.14;96395.06;5071690;28;20811;-61
2021/08/19 08:10:48;;;;;;;1.40;1.30;;;;;;;20.17;79.92;96398.78;5087631;28;20265;-62
2021/08/19 08:13:14;;;;;;;2.00;1.90;;;;;;;20.41;80.36;96397.69;5076520;28;20203;-60
2021/08/19 08:15:40;;;;;;;1.50;1.30;;;;;;;20.59;79.53;96395.31;5071326;28;20191;-64
2021/08/19 08:18:06;;;;;;;1.10;1.10;;;;;;;20.67;79.42;96395.50;5070835;28;20203;-59
2021/08/19 08:20:33;;;;;;;3.03;1.63;;;;;;;20.77;78.79;96395.34;5071348;28;20416;-59
2021/08/19 08:22:58;;;;;;;1.50;1.30;;;;;;;20.99;78.46;96397.41;5086275;28;20445;-61
2021/08/19 08:25:24;;;;;;;1.50;1.40;;;;;;;21.15;78.73;96396.13;5076949;28;20464;-59
2021/08/19 08:28:11;;;;;;;1.60;1.50;;;;;;;21.23;78.50;96406.16;5070715;28;20163;-59
2021/08/19 08:30:45;;;;;;;1.60;1.50;;;;;;;21.32;77.59;96404.41;5071109;28;20195;-58
2021/08/19 08:33:12;;;;;;;1.83;1.73;;;;;;;21.07;75.30;96412.84;5055221;28;20544;-59
2021/08/19 08:35:38;;;;;;;2.07;1.50;;;;;;;21.07;75.35;96413.63;5050713;28;20429;-61
2021/08/19 08:38:11;;;;;;;1.37;1.33;;;;;;;21.26;75.19;96400.22;5054029;28;20410;-57
2021/08/19 08:40:40;;;;;;;2.20;1.70;;;;;;;21.36;75.59;96406.19;5083995;28;20178;-57
2021/08/19 08:43:06;;;;;;;1.57;1.47;;;;;;;21.50;75.87;96404.34;5094252;28;20405;-66
2021/08/19 08:45:34;;;;;;;2.30;2.20;;;;;;;21.57;76.09;96412.00;5093230;28;20424;-66
2021/08/19 08:48:11;;;;;;;2.67;2.00;;;;;;;21.69;75.85;96411.53;5071197;28;20250;-57
2021/08/19 08:50:38;;;;;;;2.63;1.27;;;;;;;21.73;74.87;96412.53;5054106;28;20409;-58
2021/08/19 08:53:04;;;;;;;1.40;1.33;;;;;;;21.66;74.51;96407.56;5053912;28;20860;-66
2021/08/19 08:55:29;;;;;;;3.63;2.07;;;;;;;21.61;73.09;96404.19;5054213;28;20456;-66
2021/08/19 08:57:55;;;;;;;2.00;1.40;;;;;;;21.51;72.45;96407.84;5052840;28;20783;-65
2021/08/19 09:00:21;;;;;;;2.03;1.90;;;;;;;21.32;73.57;96407.09;5054191;28;20164;-66
2021/08/19 09:02:47;;;;;;;1.60;1.50;;;;;;;21.48;73.98;96406.56;5059552;28;20244;-58
2021/08/19 09:05:17;;;;;;;1.63;1.53;;;;;;;21.70;74.36;96408.59;5074020;28;20547;-57
2021/08/19 09:07:45;;;;;;;1.60;1.50;;;;;;;21.44;73.61;96413.56;5073922;28;20243;-58
2021/08/19 09:10:13;;;;;;;1.60;1.50;;;;;;;21.47;73.42;96407.63;5073928;28;20401;-65
2021/08/19 09:12:41;;;;;;;1.40;1.30;;;;;;;21.59;74.04;96414.41;5073609;28;20494;-58
2021/08/19 09:15:09;;;;;;;1.87;1.77;;;;;;;21.80;74.19;96412.97;5073811;28;20436;-66
2021/08/19 09:17:49;;;;;;;1.67;1.57;;;;;;;21.35;71.26;96417.19;5062521;28;20760;-66
2021/08/19 09:20:15;;;;;;;1.47;1.37;;;;;;;21.49;72.20;96415.34;5053966;28;20752;-66
2021/08/19 09:22:51;;;;;;;1.37;1.30;;;;;;;21.20;73.36;96420.91;5053671;28;20912;-66
2021/08/19 09:25:30;;;;;;;1.50;1.40;;;;;;;21.20;75.31;96425.44;5053584;28;20264;-58
2021/08/19 09:28:20;;;;;;;1.63;1.30;;;;;;;20.71;75.08;96427.75;5053770;28;20505;-58
2021/08/19 09:31:04;;;;;;;1.30;1.20;;;;;;;20.63;75.41;96417.69;5053746;28;20394;-58
2021/08/19 09:33:37;;;;;;;1.47;1.37;;;;;;;20.69;76.36;96416.56;5053187;28;20465;-66
2021/08/19 09:36:06;;;;;;;1.60;1.50;;;;;;;20.87;76.20;96405.09;5068675;28;20440;-58
2021/08/19 09:38:49;;;;;;;1.43;1.33;;;;;;;20.92;76.34;96407.69;5073866;28;20459;-65
2021/08/19 09:41:17;;;;;;;1.40;1.30;;;;;;;21.01;76.33;96400.63;5073890;28;20871;-65
2021/08/19 09:43:47;;;;;;;1.83;1.40;;;;;;;21.04;74.51;96406.19;5073041;28;20748;-66
2021/08/19 09:46:34;;;;;;;4.50;1.33;;;;;;;20.92;73.18;96400.47;5073526;28;20792;-58
2021/08/19 09:49:27;;;;;;;1.03;1.03;;;;;;;20.75;73.36;96405.50;5053382;28;20445;-58
2021/08/19 09:52:09;;;;;;;1.70;1.40;;;;;;;21.09;72.80;96399.94;5053251;28;21034;-57
2021/08/19 09:54:42;;;;;;;1.20;1.10;;;;;;;21.02;69.53;96402.19;5053098;28;20425;-66
2021/08/19 09:57:09;;;;;;;1.23;1.07;;;;;;;21.13;71.48;96404.44;5053225;28;20442;-66
2021/08/19 09:59:40;;;;;;;1.20;1.03;;;;;;;21.10;72.37;96389.00;5053200;28;20414;-58
2021/08/19 10:02:08;;;;;;;0.80;0.80;;;;;;;21.17;69.29;96393.97;5056977;28;20429;-57
2021/08/19 10:04:35;;;;;;;1.03;1.03;;;;;;;21.35;69.51;96403.81;5057023;28;20780;-58
2021/08/19 10:07:02;;;;;;;1.10;0.97;;;;;;;21.60;69.39;96395.38;5057358;28;20418;-66
2021/08/19 10:09:28;;;;;;;1.63;0.90;;;;;;;21.55;66.94;96392.78;5057309;28;20424;-64
2021/08/19 10:11:55;;;;;;;1.20;1.10;;;;;;;21.65;66.40;96389.91;5076788;28;20464;-58
2021/08/19 10:14:24;;;;;;;0.80;0.80;;;;;;;21.56;66.03;96391.69;5076826;28;20222;-57
2021/08/19 10:16:51;;;;;;;1.43;0.90;;;;;;;21.54;66.79;96385.06;5077224;28;20454;-66
2021/08/19 10:19:34;;;;;;;0.80;0.80;;;;;;;21.72;66.36;96395.72;5077087;28;20404;-66
2021/08/19 10:22:08;;;;;;;1.60;1.50;;;;;;;21.69;65.56;96382.09;5077072;28;20840;-65
2021/08/19 10:24:36;;;;;;;1.20;1.10;;;;;;;21.81;66.44;96385.94;5073736;28;20453;-58
2021/08/19 10:27:23;;;;;;;2.60;1.30;;;;;;;21.77;64.11;96381.44;5057005;28;20409;-66
2021/08/19 10:29:55;;;;;;;1.20;1.13;;;;;;;22.00;64.60;96383.16;5055586;28;20456;-58
2021/08/19 10:32:28;;;;;;;1.20;1.20;;;;;;;22.18;68.47;96382.25;5057010;28;20449;-58
2021/08/19 10:34:59;;;;;;;1.07;1.00;;;;;;;22.34;62.93;96376.31;5073650;28;20957;-63
2021/08/19 10:37:43;;;;;;;1.03;0.93;;;;;;;22.49;63.97;96373.31;5075239;28;20539;-66
2021/08/19 10:40:24;;;;;;;1.13;1.03;;;;;;;22.28;63.71;96372.13;5076817;28;20401;-58
2021/08/19 10:42:57;;;;;;;0.83;0.83;;;;;;;22.26;63.15;96378.91;5068062;28;20413;-62
2021/08/19 10:45:29;;;;;;;1.53;1.03;;;;;;;21.93;61.59;96377.41;5071883;28;20531;-58
2021/08/19 10:48:15;;;;;;;0.97;0.90;;;;;;;21.90;61.75;96375.34;5076380;28;20417;-62
2021/08/19 10:50:41;;;;;;;0.90;0.90;;;;;;;22.03;63.88;96374.56;5064567;28;20425;-57
2021/08/19 10:53:16;;;;;;;1.20;1.10;;;;;;;21.92;62.94;96381.19;5071765;28;20454;-58
2021/08/19 10:55:50;;;;;;;1.07;1.00;;;;;;;22.10;63.83;96372.28;5056475;28;20437;-58
2021/08/19 10:58:33;;;;;;;1.63;1.23;;;;;;;22.25;64.62;96364.72;5055352;28;20915;-58
2021/08/19 11:01:14;;;;;;;2.00;1.23;;;;;;;22.18;62.96;96368.88;5056305;28;20495;-60
2021/08/19 11:03:39;;;;;;;2.10;1.30;;;;;;;22.30;62.82;96369.94;5073820;28;20417;-61
2021/08/19 11:06:10;;;;;;;1.60;1.40;;;;;;;22.53;63.21;96360.13;5075518;28;20471;-58
2021/08/19 11:08:38;;;;;;;1.53;1.20;;;;;;;22.16;64.29;96371.84;5076126;28;20648;-63
2021/08/19 11:11:04;;;;;;;2.40;1.50;;;;;;;22.69;63.56;96364.06;5058181;28;20422;-58
2021/08/19 11:13:34;;;;;;;1.10;1.00;;;;;;;22.71;62.92;96366.44;5054317;28;20468;-57
2021/08/19 11:15:59;;;;;;;1.33;1.33;;;;;;;22.13;63.38;96371.66;5056135;28;20430;-58
2021/08/19 11:18:27;;;;;;;2.20;1.63;;;;;;;22.08;64.80;96372.56;5056791;28;20780;-60
2021/08/19 11:20:53;;;;;;;1.00;1.00;;;;;;;22.46;65.74;96363.19;5090171;28;20261;-58
2021/08/19 11:23:18;;;;;;;1.57;1.47;;;;;;;22.41;67.08;96357.94;5095963;28;20489;-62
2021/08/19 11:25:45;;;;;;;1.00;1.00;;;;;;;22.78;66.93;96364.13;5093300;28;20209;-58
2021/08/19 11:28:14;;;;;;;1.60;1.50;;;;;;;22.95;65.97;96364.28;5074057;28;20185;-61
2021/08/19 11:30:42;;;;;;;1.53;1.20;;;;;;;23.32;65.98;96356.69;5092478;28;20785;-57
2021/08/19 11:33:12;;;;;;;1.30;1.20;;;;;;;23.52;65.43;96359.97;5092015;28;20458;-59
2021/08/19 11:35:39;;;;;;;1.60;1.33;;;;;;;23.17;62.92;96361.63;5092525;28;20463;-61